Terminal Aerodrome Forecast
Issued by NWS

Current Version | Previous Version | Text Only | Print | Product List | Glossary On
Versions: 1 2 3 4 5 6 7 8 9 10 11 12
519
FTUS42 KGSP 081135
TAFAND
TAF
KAND 081135Z 0812/0912 00000KT P6SM SCT120
     FM081800 25010G19KT P6SM VCSH FEW040 BKN070
      TEMPO 0818/0822 5SM -SHRA OVC030
     FM090200 27008KT P6SM SCT080=

USA.gov is the U.S. government's official web portal to all federal, state and local government web resources and services.